Time;durP1;ratioP1;P1;durP2;ratioP2;P2;SDS_P1;SDS_P2;PMS_P1;PMS_P2;Temp;Humidity;BMP_temperature;BMP_pressure;BME280_temperature;BME280_humidity;BME280_pressure;Samples;Min_cycle;Max_cycle;Signal;HPM_P1;HPM_P2
2021/01/23 00:00:17;;;;;;;25.27;12.83;;;;;;;;;;4406044;32;20146;-77
2021/01/23 00:03:03;;;;;;;28.23;13.37;;;;;;;;;;4301546;32;20175;-77
2021/01/23 00:05:32;;;;;;;21.07;12.23;;;;;;;;;;4361170;32;20185;-76
2021/01/23 00:08:01;;;;;;;29.30;12.60;;;;;;;;;;4361647;32;20159;-77
2021/01/23 00:10:32;;;;;;;23.00;12.80;;;;;;;;;;4361287;32;20159;-77
2021/01/23 00:12:57;;;;;;;27.37;12.57;;;;;;;;;;4362059;32;20221;-77
2021/01/23 00:15:26;;;;;;;25.07;12.67;;;;;;;;;;4361226;32;20159;-77
2021/01/23 00:18:01;;;;;;;22.87;12.37;;;;;;;;;;4361348;32;20185;-77
2021/01/23 00:24:14;;;;;;;27.07;12.87;;;;;;;;;;4359135;33;20150;-78
2021/01/23 00:27:03;;;;;;;24.40;12.67;;;;;;;;;;4346079;33;20197;-77
2021/01/23 00:29:36;;;;;;;24.07;12.30;;;;;;;;;;4359034;32;20159;-77
2021/01/23 00:32:08;;;;;;;26.60;13.53;;;;;;;;;;4346278;33;20163;-77
2021/01/23 00:34:55;;;;;;;27.60;13.70;;;;;;;;;;4389491;32;20192;-77
2021/01/23 00:37:19;;;;;;;26.33;13.57;;;;;;;;;;4405938;32;20188;-77
2021/01/23 00:40:04;;;;;;;27.57;13.30;;;;;;;;;;4404473;32;20197;-77
2021/01/23 00:42:32;;;;;;;26.03;13.40;;;;;;;;;;4404587;32;20176;-76
2021/01/23 00:45:06;;;;;;;29.43;14.57;;;;;;;;;;4404403;32;20304;-76
2021/01/23 00:47:31;;;;;;;29.10;13.47;;;;;;;;;;4404400;32;20240;-77
2021/01/23 00:49:59;;;;;;;28.63;13.33;;;;;;;;;;4404645;32;20284;-76
2021/01/23 00:52:25;;;;;;;27.37;13.87;;;;;;;;;;4404612;32;20158;-76
2021/01/23 00:55:22;;;;;;;28.87;13.00;;;;;;;;;;4405431;32;20160;-77
2021/01/23 00:57:48;;;;;;;31.13;13.13;;;;;;;;;;4404708;32;20212;-76
2021/01/23 01:00:17;;;;;;;27.63;14.17;;;;;;;;;;4404412;32;20154;-76
2021/01/23 01:02:45;;;;;;;23.57;13.57;;;;;;;;;;4404567;32;20201;-76
2021/01/23 01:05:11;;;;;;;24.27;13.20;;;;;;;;;;4404114;32;20170;-77
2021/01/23 01:07:39;;;;;;;24.33;13.20;;;;;;;;;;4404197;32;20185;-76
2021/01/23 01:10:06;;;;;;;21.67;13.50;;;;;;;;;;4404101;32;20206;-77
2021/01/23 01:12:35;;;;;;;28.53;13.90;;;;;;;;;;4404530;32;20179;-76
2021/01/23 01:15:04;;;;;;;23.67;13.87;;;;;;;;;;4403813;32;20181;-76
2021/01/23 01:17:56;;;;;;;26.20;12.63;;;;;;;;;;4404014;32;20165;-77
2021/01/23 01:20:20;;;;;;;21.50;12.70;;;;;;;;;;4404776;32;20536;-77
2021/01/23 01:22:46;;;;;;;22.43;11.90;;;;;;;;;;4404293;32;20181;-76
2021/01/23 01:25:13;;;;;;;19.17;11.53;;;;;;;;;;4403934;32;20192;-76
2021/01/23 01:27:42;;;;;;;22.10;11.67;;;;;;;;;;4404204;32;20548;-77
2021/01/23 01:30:08;;;;;;;23.80;13.30;;;;;;;;;;4405182;32;20170;-77
2021/01/23 01:32:34;;;;;;;25.50;12.63;;;;;;;;;;4403949;32;20157;-76
2021/01/23 01:35:20;;;;;;;19.90;11.90;;;;;;;;;;4404298;32;20494;-77
2021/01/23 01:37:48;;;;;;;29.07;12.77;;;;;;;;;;4404190;32;20187;-76
2021/01/23 01:40:14;;;;;;;21.73;12.53;;;;;;;;;;4403848;32;20312;-77
2021/01/23 01:42:42;;;;;;;24.67;13.03;;;;;;;;;;4404317;32;20446;-77
2021/01/23 01:45:27;;;;;;;21.27;12.63;;;;;;;;;;4403999;32;20209;-77
2021/01/23 01:47:55;;;;;;;23.00;13.17;;;;;;;;;;4403821;32;20492;-77
2021/01/23 01:54:12;;;;;;;28.13;13.17;;;;;;;;;;4391980;32;20154;-77
2021/01/23 01:56:46;;;;;;;21.73;12.77;;;;;;;;;;4357615;33;20255;-77
2021/01/23 01:59:21;;;;;;;23.07;13.53;;;;;;;;;;4345890;33;20492;-77
2021/01/23 02:01:50;;;;;;;21.43;13.27;;;;;;;;;;4379639;32;20514;-77
2021/01/23 02:04:21;;;;;;;27.83;14.00;;;;;;;;;;4404828;32;20234;-77
2021/01/23 02:13:19;;;;;;;25.67;13.13;;;;;;;;;;4357990;33;20146;-77
2021/01/23 02:15:55;;;;;;;23.27;12.43;;;;;;;;;;4345900;33;20187;-77
2021/01/23 02:18:30;;;;;;;25.77;13.73;;;;;;;;;;4358002;33;20206;-77
2021/01/23 02:21:31;;;;;;;;;;;;;;;;;;;;;
2021/01/23 02:24:20;;;;;;;24.23;14.23;;;;;;;;;;4390317;32;20184;-77
2021/01/23 02:27:00;;;;;;;26.70;15.10;;;;;;;;;;4354879;33;20175;-77
2021/01/23 02:29:53;;;;;;;26.37;14.23;;;;;;;;;;4391311;32;20150;-77
2021/01/23 02:32:37;;;;;;;22.90;13.67;;;;;;;;;;4393222;32;20127;-77
2021/01/23 02:35:03;;;;;;;27.00;14.97;;;;;;;;;;4391434;32;20158;-77
2021/01/23 02:37:32;;;;;;;27.17;14.67;;;;;;;;;;4391017;32;20178;-77
2021/01/23 02:39:58;;;;;;;24.73;14.23;;;;;;;;;;4392717;32;20173;-78
2021/01/23 02:42:30;;;;;;;22.03;14.93;;;;;;;;;;4391673;32;20180;-77
2021/01/23 02:45:11;;;;;;;27.97;14.83;;;;;;;;;;4393064;32;20598;-77
2021/01/23 02:47:49;;;;;;;23.17;14.50;;;;;;;;;;4402142;32;20163;-77
2021/01/23 02:50:17;;;;;;;24.27;14.23;;;;;;;;;;4393296;32;20192;-77
2021/01/23 02:53:01;;;;;;;26.00;14.13;;;;;;;;;;4393580;32;20181;-78
2021/01/23 02:55:33;;;;;;;24.27;13.87;;;;;;;;;;4407662;32;20139;-77
2021/01/23 02:58:01;;;;;;;26.03;15.97;;;;;;;;;;4393639;32;20174;-77
2021/01/23 03:00:29;;;;;;;29.83;14.57;;;;;;;;;;4393272;32;20188;-77
2021/01/23 03:02:56;;;;;;;26.70;15.03;;;;;;;;;;4393398;32;20292;-78
2021/01/23 03:05:41;;;;;;;22.70;14.60;;;;;;;;;;4407456;32;20486;-77
2021/01/23 03:08:09;;;;;;;25.67;14.43;;;;;;;;;;4407576;32;20134;-78
2021/01/23 03:10:39;;;;;;;27.33;14.53;;;;;;;;;;4393197;32;20158;-78
2021/01/23 03:13:06;;;;;;;24.43;13.53;;;;;;;;;;4407388;32;20165;-77
2021/01/23 03:15:35;;;;;;;27.60;15.23;;;;;;;;;;4393068;32;20595;-78
2021/01/23 03:18:06;;;;;;;23.13;12.80;;;;;;;;;;4393352;32;20171;-77
2021/01/23 03:20:31;;;;;;;23.43;13.63;;;;;;;;;;4407744;32;20133;-78
2021/01/23 03:23:00;;;;;;;24.03;13.83;;;;;;;;;;4393415;32;20582;-77
2021/01/23 03:25:29;;;;;;;23.13;12.70;;;;;;;;;;4406774;32;20142;-78
2021/01/23 03:28:03;;;;;;;24.00;13.47;;;;;;;;;;4406853;32;20223;-78
2021/01/23 03:30:34;;;;;;;19.77;12.10;;;;;;;;;;4393294;32;20252;-77
2021/01/23 03:33:04;;;;;;;19.73;12.30;;;;;;;;;;4392973;32;20173;-77
2021/01/23 03:35:45;;;;;;;;;;;;;;;;;;;;;
2021/01/23 03:38:11;;;;;;;21.57;11.93;;;;;;;;;;4407150;32;20150;-78
2021/01/23 03:40:36;;;;;;;19.87;12.23;;;;;;;;;;4393323;32;20177;-77
2021/01/23 03:43:01;;;;;;;21.90;13.10;;;;;;;;;;4406928;32;20532;-77
2021/01/23 03:45:27;;;;;;;21.63;13.43;;;;;;;;;;4406837;32;20170;-77
2021/01/23 03:47:52;;;;;;;22.67;12.30;;;;;;;;;;4392685;32;20210;-78
2021/01/23 03:50:27;;;;;;;24.53;12.77;;;;;;;;;;4392743;32;20213;-78
2021/01/23 03:52:53;;;;;;;24.13;13.77;;;;;;;;;;4391958;32;20170;-77
2021/01/23 03:55:21;;;;;;;23.50;12.37;;;;;;;;;;4392917;32;20552;-77
2021/01/23 03:57:54;;;;;;;20.90;12.63;;;;;;;;;;4392570;32;20158;-78
2021/01/23 04:00:20;;;;;;;23.30;14.17;;;;;;;;;;4393070;32;20505;-77
2021/01/23 04:02:51;;;;;;;24.57;13.60;;;;;;;;;;4392705;32;20157;-78
2021/01/23 04:05:19;;;;;;;28.20;13.50;;;;;;;;;;4393177;32;20219;-77
2021/01/23 04:07:54;;;;;;;22.90;13.10;;;;;;;;;;4392993;32;20181;-78
2021/01/23 04:10:29;;;;;;;24.73;12.90;;;;;;;;;;4407219;32;20180;-78
2021/01/23 04:13:15;;;;;;;23.07;12.63;;;;;;;;;;4405642;32;20162;-78
2021/01/23 04:15:44;;;;;;;22.90;12.20;;;;;;;;;;4393311;32;20172;-78
2021/01/23 04:18:31;;;;;;;;;;;;;;;;;;;;;
2021/01/23 04:27:32;;;;;;;21.83;12.73;;;;;;;;;;4358758;32;20287;-77
2021/01/23 04:33:29;;;;;;;;;;;;;;;;;;;;;
2021/01/23 04:36:01;;;;;;;22.17;12.60;;;;;;;;;;4336362;32;20186;-77
2021/01/23 04:44:37;;;;;;;22.00;11.63;;;;;;;;;;4329350;33;20222;-77
2021/01/23 04:47:09;;;;;;;20.73;11.40;;;;;;;;;;4390254;32;20201;-77
2021/01/23 04:55:41;;;;;;;18.90;11.10;;;;;;;;;;4299882;33;20310;-77
2021/01/23 04:58:34;;;;;;;17.23;10.83;;;;;;;;;;4386514;32;20192;-77
2021/01/23 05:01:07;;;;;;;19.83;11.10;;;;;;;;;;4404594;32;20188;-77
2021/01/23 05:03:53;;;;;;;18.63;10.70;;;;;;;;;;4389789;32;20161;-76
2021/01/23 05:06:20;;;;;;;14.60;9.87;;;;;;;;;;4404402;32;20209;-77
2021/01/23 05:08:55;;;;;;;15.13;9.80;;;;;;;;;;4391454;32;20181;-77
2021/01/23 05:11:20;;;;;;;14.57;9.20;;;;;;;;;;4390582;32;20153;-77
2021/01/23 05:14:05;;;;;;;17.80;9.50;;;;;;;;;;4391560;32;20150;-77
2021/01/23 05:17:14;;;;;;;13.33;8.70;;;;;;;;;;4391600;32;20239;-77
2021/01/23 05:19:45;;;;;;;16.27;8.30;;;;;;;;;;4397742;32;20192;-77
2021/01/23 05:22:14;;;;;;;14.53;8.23;;;;;;;;;;4391473;32;20197;-77
2021/01/23 05:25:01;;;;;;;13.00;8.03;;;;;;;;;;4391400;32;20162;-77
2021/01/23 05:27:49;;;;;;;12.40;7.50;;;;;;;;;;4404449;32;20493;-77
2021/01/23 05:30:16;;;;;;;14.03;7.03;;;;;;;;;;4391410;32;20199;-76
2021/01/23 05:32:41;;;;;;;15.13;7.60;;;;;;;;;;4391521;32;20602;-77
2021/01/23 05:35:24;;;;;;;12.67;7.33;;;;;;;;;;4391836;32;20146;-77
2021/01/23 05:37:54;;;;;;;13.03;7.33;;;;;;;;;;4404962;32;20208;-77
2021/01/23 05:40:28;;;;;;;12.20;6.90;;;;;;;;;;4391074;32;20214;-77
2021/01/23 05:43:02;;;;;;;10.73;6.93;;;;;;;;;;4391354;32;20181;-77
2021/01/23 05:45:48;;;;;;;10.60;6.80;;;;;;;;;;4390448;32;20173;-77
2021/01/23 05:48:14;;;;;;;10.73;6.17;;;;;;;;;;4390798;32;20196;-77
2021/01/23 05:50:50;;;;;;;9.33;6.07;;;;;;;;;;4391153;32;20232;-78
2021/01/23 05:53:18;;;;;;;11.93;6.57;;;;;;;;;;4392144;32;20209;-77
2021/01/23 05:55:43;;;;;;;11.20;6.33;;;;;;;;;;4391113;32;20228;-77
2021/01/23 05:58:30;;;;;;;9.90;6.40;;;;;;;;;;4391225;32;20207;-77
2021/01/23 06:01:07;;;;;;;10.37;5.87;;;;;;;;;;4393443;32;20157;-77
2021/01/23 06:03:36;;;;;;;11.67;5.97;;;;;;;;;;4394210;32;20157;-77
2021/01/23 06:06:02;;;;;;;8.57;5.97;;;;;;;;;;4394117;32;20480;-77
2021/01/23 06:08:47;;;;;;;10.90;5.63;;;;;;;;;;4394556;32;20216;-77
2021/01/23 06:11:18;;;;;;;9.90;5.80;;;;;;;;;;4394205;32;20650;-77
2021/01/23 06:13:58;;;;;;;8.40;5.90;;;;;;;;;;4394701;32;20572;-77
2021/01/23 06:16:33;;;;;;;11.90;6.30;;;;;;;;;;4393951;32;20471;-77
2021/01/23 06:19:33;;;;;;;9.77;6.00;;;;;;;;;;4393956;32;20188;-77
2021/01/23 06:22:01;;;;;;;10.40;6.37;;;;;;;;;;4378808;32;20197;-77
2021/01/23 06:24:45;;;;;;;12.70;6.93;;;;;;;;;;4393793;32;20223;-78
2021/01/23 06:27:16;;;;;;;15.20;6.87;;;;;;;;;;4394519;32;20184;-77
2021/01/23 06:29:43;;;;;;;12.60;6.57;;;;;;;;;;4393847;32;20161;-77
2021/01/23 06:32:35;;;;;;;11.63;6.47;;;;;;;;;;4394250;32;20224;-77
2021/01/23 06:44:33;;;;;;;11.33;5.40;;;;;;;;;;4340084;33;20162;-77
2021/01/23 06:47:00;;;;;;;10.83;5.53;;;;;;;;;;4345535;33;20174;-77
2021/01/23 06:49:29;;;;;;;15.10;5.97;;;;;;;;;;4374354;32;20181;-78
2021/01/23 06:52:15;;;;;;;8.20;5.70;;;;;;;;;;4378260;32;20185;-77
2021/01/23 06:54:47;;;;;;;11.07;5.67;;;;;;;;;;4391423;32;20559;-77
2021/01/23 06:57:14;;;;;;;12.50;5.33;;;;;;;;;;4391018;32;20151;-78
2021/01/23 06:59:39;;;;;;;11.17;5.53;;;;;;;;;;4390908;32;20159;-77
2021/01/23 07:02:31;;;;;;;10.57;5.63;;;;;;;;;;4390968;32;20173;-78
2021/01/23 07:04:55;;;;;;;10.37;5.40;;;;;;;;;;4391931;32;20166;-77
2021/01/23 07:07:20;;;;;;;10.83;5.17;;;;;;;;;;4390712;32;20175;-78
2021/01/23 07:10:08;;;;;;;9.67;5.53;;;;;;;;;;4390939;32;20162;-78
2021/01/23 07:12:49;;;;;;;9.27;5.27;;;;;;;;;;4391657;32;20158;-78
2021/01/23 07:15:43;;;;;;;;;;;;;;;;;;;;;
2021/01/23 07:18:23;;;;;;;9.30;5.33;;;;;;;;;;4391709;32;20178;-77
2021/01/23 07:21:18;;;;;;;9.90;5.80;;;;;;;;;;4390622;32;20173;-77
2021/01/23 07:23:46;;;;;;;11.70;5.77;;;;;;;;;;4344585;33;20193;-77
2021/01/23 07:26:11;;;;;;;12.70;6.83;;;;;;;;;;4384785;32;20227;-77
2021/01/23 07:28:43;;;;;;;10.80;6.97;;;;;;;;;;4390982;32;20496;-77
2021/01/23 07:31:20;;;;;;;12.13;6.80;;;;;;;;;;4390411;32;20194;-77
2021/01/23 07:33:45;;;;;;;10.80;6.53;;;;;;;;;;4390441;32;20532;-76
2021/01/23 07:36:13;;;;;;;10.20;5.90;;;;;;;;;;4390337;32;20165;-77
2021/01/23 07:38:38;;;;;;;10.23;6.10;;;;;;;;;;4390342;32;20197;-77
2021/01/23 07:41:09;;;;;;;13.00;5.43;;;;;;;;;;4390243;32;20158;-77
2021/01/23 07:43:46;;;;;;;8.97;5.87;;;;;;;;;;4390227;32;20232;-78
2021/01/23 07:46:24;;;;;;;7.93;5.50;;;;;;;;;;4390420;32;20154;-78
2021/01/23 07:48:58;;;;;;;10.50;5.13;;;;;;;;;;4390800;32;20205;-77
2021/01/23 07:51:40;;;;;;;;;;;;;;;;;;;;;
2021/01/23 07:54:19;;;;;;;;;;;;;;;;;;;;;
2021/01/23 07:56:59;;;;;;;8.43;4.37;;;;;;;;;;4391778;32;20134;-78
2021/01/23 07:59:44;;;;;;;7.13;4.73;;;;;;;;;;4389955;32;20177;-76
2021/01/23 08:02:22;;;;;;;7.40;4.67;;;;;;;;;;4390569;32;20185;-77
2021/01/23 08:04:48;;;;;;;9.63;5.07;;;;;;;;;;4389942;32;20674;-78
2021/01/23 08:07:18;;;;;;;10.03;5.10;;;;;;;;;;4389953;32;20526;-78
2021/01/23 08:09:45;;;;;;;9.10;4.97;;;;;;;;;;4389500;32;20510;-77
2021/01/23 08:12:15;;;;;;;8.00;5.23;;;;;;;;;;4390338;32;20249;-77
2021/01/23 08:14:52;;;;;;;12.13;5.63;;;;;;;;;;4389681;32;20161;-78
2021/01/23 08:17:18;;;;;;;8.63;5.83;;;;;;;;;;4390053;32;20181;-76
2021/01/23 08:19:49;;;;;;;12.80;6.60;;;;;;;;;;4389702;32;20650;-76
2021/01/23 08:22:17;;;;;;;10.27;6.60;;;;;;;;;;4389659;32;20188;-78
2021/01/23 08:24:45;;;;;;;10.30;7.37;;;;;;;;;;4388985;32;20165;-78
2021/01/23 08:27:22;;;;;;;10.80;6.77;;;;;;;;;;4391833;32;20138;-78
2021/01/23 08:29:51;;;;;;;12.60;6.73;;;;;;;;;;4390067;32;20204;-78
2021/01/23 08:32:19;;;;;;;15.27;7.40;;;;;;;;;;4389404;32;20245;-77
2021/01/23 08:34:48;;;;;;;10.87;6.70;;;;;;;;;;4391300;32;20464;-78
2021/01/23 08:37:18;;;;;;;13.03;7.73;;;;;;;;;;4389606;32;20212;-78
2021/01/23 08:39:51;;;;;;;10.90;7.03;;;;;;;;;;4390193;32;20226;-79
2021/01/23 08:45:40;;;;;;;12.17;7.20;;;;;;;;;;4386475;32;20212;-79
2021/01/23 08:51:01;;;;;;;13.77;7.50;;;;;;;;;;4372665;32;20178;-80
2021/01/23 08:53:29;;;;;;;16.57;8.03;;;;;;;;;;4371863;32;20190;-80
2021/01/23 08:56:03;;;;;;;15.70;8.17;;;;;;;;;;4376626;32;20174;-82
2021/01/23 08:58:55;;;;;;;15.10;7.80;;;;;;;;;;4377445;32;20656;-80
2021/01/23 09:01:46;;;;;;;16.43;8.83;;;;;;;;;;4369611;32;20185;-81
2021/01/23 09:04:11;;;;;;;15.93;8.20;;;;;;;;;;4368118;32;20498;-80
2021/01/23 09:06:40;;;;;;;13.43;8.33;;;;;;;;;;4376812;32;20163;-81
2021/01/23 09:09:05;;;;;;;15.77;8.50;;;;;;;;;;4376344;32;20158;-82
2021/01/23 09:11:36;;;;;;;13.43;8.43;;;;;;;;;;4375924;32;20162;-81
2021/01/23 09:14:22;;;;;;;15.93;9.90;;;;;;;;;;4365375;32;20587;-81
2021/01/23 09:17:39;;;;;;;15.70;8.73;;;;;;;;;;4376348;32;20196;-80
2021/01/23 09:20:25;;;;;;;24.70;10.13;;;;;;;;;;4382468;32;20170;-81
2021/01/23 09:22:48;;;;;;;18.57;9.53;;;;;;;;;;4385844;32;20197;-82
2021/01/23 09:31:53;;;;;;;20.10;8.80;;;;;;;;;;4328743;33;20178;-79
2021/01/23 09:34:24;;;;;;;14.13;8.30;;;;;;;;;;4292850;33;20250;-81
2021/01/23 09:36:49;;;;;;;16.77;8.50;;;;;;;;;;4316444;33;20178;-81
2021/01/23 09:39:14;;;;;;;18.97;7.90;;;;;;;;;;4344502;32;20185;-81
2021/01/23 09:41:40;;;;;;;13.47;7.67;;;;;;;;;;4376316;32;20212;-81
2021/01/23 09:44:16;;;;;;;18.37;7.93;;;;;;;;;;4376128;32;20166;-80
2021/01/23 09:46:41;;;;;;;16.50;7.87;;;;;;;;;;4376505;32;20158;-79
2021/01/23 09:55:18;;;;;;;16.80;7.33;;;;;;;;;;4388576;32;20225;-82
2021/01/23 09:57:52;;;;;;;16.27;9.20;;;;;;;;;;4389533;32;20201;-81
2021/01/23 10:00:40;;;;;;;16.37;8.80;;;;;;;;;;4363858;32;20169;-81
2021/01/23 10:03:11;;;;;;;17.27;9.77;;;;;;;;;;4377011;32;20193;-81
2021/01/23 10:06:00;;;;;;;17.20;10.10;;;;;;;;;;4376361;32;20162;-81
2021/01/23 10:11:28;;;;;;;15.97;9.10;;;;;;;;;;4328407;33;20686;-80
2021/01/23 10:14:02;;;;;;;17.03;9.93;;;;;;;;;;4372910;32;20178;-82
2021/01/23 10:16:27;;;;;;;18.17;10.63;;;;;;;;;;4376047;32;20248;-80
2021/01/23 10:19:03;;;;;;;19.77;10.83;;;;;;;;;;4375920;32;20167;-81
2021/01/23 10:21:31;;;;;;;19.97;10.90;;;;;;;;;;4375791;32;20219;-81
2021/01/23 10:23:57;;;;;;;18.20;10.47;;;;;;;;;;4375613;32;20162;-81
2021/01/23 10:26:22;;;;;;;16.53;10.23;;;;;;;;;;4375945;32;20182;-79
2021/01/23 10:28:48;;;;;;;18.83;9.97;;;;;;;;;;4375621;32;20248;-82
2021/01/23 10:31:13;;;;;;;17.03;10.60;;;;;;;;;;4389570;32;20181;-81
2021/01/23 10:33:38;;;;;;;16.50;9.73;;;;;;;;;;4375614;32;20166;-80
2021/01/23 10:36:06;;;;;;;16.23;9.63;;;;;;;;;;4375497;32;20178;-81
2021/01/23 10:38:31;;;;;;;13.77;9.50;;;;;;;;;;4375387;32;20639;-80
2021/01/23 10:40:57;;;;;;;15.20;8.93;;;;;;;;;;4375201;32;20223;-81
2021/01/23 10:43:25;;;;;;;17.60;9.70;;;;;;;;;;4375399;32;20189;-79
2021/01/23 10:46:06;;;;;;;;;;;;;;;;;;;;;
2021/01/23 10:48:35;;;;;;;14.20;8.00;;;;;;;;;;4392275;32;20157;-79
2021/01/23 10:51:08;;;;;;;13.57;8.63;;;;;;;;;;4378002;32;20162;-80
2021/01/23 10:53:59;;;;;;;16.43;9.53;;;;;;;;;;4381558;32;20176;-81
2021/01/23 10:56:43;;;;;;;13.80;9.67;;;;;;;;;;4392630;32;20170;-79
2021/01/23 11:02:41;;;;;;;11.10;7.47;;;;;;;;;;4345190;33;20641;-80
2021/01/23 11:08:45;;;;;;;;;;;;;;;;;;;;;
2021/01/23 11:11:16;;;;;;;13.47;8.87;;;;;;;;;;4347674;32;20502;-79
2021/01/23 11:13:51;;;;;;;13.03;8.30;;;;;;;;;;4392705;32;20126;-79
2021/01/23 11:16:26;;;;;;;;;;;;;;;;;;;;;
2021/01/23 11:18:52;;;;;;;12.03;8.33;;;;;;;;;;4392100;32;20142;-78
2021/01/23 11:21:17;;;;;;;14.63;9.17;;;;;;;;;;4377421;32;20177;-80
2021/01/23 11:23:43;;;;;;;15.40;10.13;;;;;;;;;;4377394;32;20184;-78
2021/01/23 11:26:08;;;;;;;13.63;9.30;;;;;;;;;;4377721;32;20243;-78
2021/01/23 11:28:39;;;;;;;18.07;10.33;;;;;;;;;;4378258;32;20890;-79
2021/01/23 11:31:07;;;;;;;19.00;10.27;;;;;;;;;;4377767;32;20155;-79
2021/01/23 11:33:32;;;;;;;18.53;10.47;;;;;;;;;;4378090;32;20231;-79
2021/01/23 11:35:58;;;;;;;15.03;9.40;;;;;;;;;;4377773;32;20220;-79
2021/01/23 11:38:34;;;;;;;13.37;8.90;;;;;;;;;;4378194;32;20163;-79
2021/01/23 11:41:05;;;;;;;13.20;10.13;;;;;;;;;;4378318;32;20178;-78
2021/01/23 11:43:42;;;;;;;15.00;9.53;;;;;;;;;;4377817;32;20196;-79
2021/01/23 11:46:08;;;;;;;15.10;9.57;;;;;;;;;;4378031;32;20157;-79
2021/01/23 11:48:33;;;;;;;14.70;9.37;;;;;;;;;;4377478;32;20614;-79
2021/01/23 11:50:58;;;;;;;17.03;10.40;;;;;;;;;;4377521;32;20159;-79
2021/01/23 11:56:28;;;;;;;11.43;6.40;;;;;;;;;;4387138;32;20679;-78
2021/01/23 11:58:54;;;;;;;10.38;5.93;;;;;;;;;;4377027;32;20179;-80
2021/01/23 12:01:38;;;;;;;9.33;5.20;;;;;;;;;;4377494;32;20276;-78
2021/01/23 12:04:12;;;;;;;7.87;5.07;;;;;;;;;;4377609;32;20188;-79
2021/01/23 12:06:43;;;;;;;10.33;5.10;;;;;;;;;;4377148;32;20162;-78
2021/01/23 12:09:35;;;;;;;;;;;;;;;;;;;;;
2021/01/23 12:12:04;;;;;;;8.70;5.87;;;;;;;;;;4390643;32;20169;-78
2021/01/23 12:14:39;;;;;;;9.53;5.97;;;;;;;;;;4377066;32;20158;-78
2021/01/23 12:17:25;;;;;;;;;;;;;;;;;;;;;
2021/01/23 12:20:03;;;;;;;8.87;6.57;;;;;;;;;;4391353;32;20146;-80
2021/01/23 12:22:29;;;;;;;10.33;6.10;;;;;;;;;;4377246;32;20694;-79
2021/01/23 12:24:57;;;;;;;11.77;6.30;;;;;;;;;;4376434;32;20227;-78
2021/01/23 12:27:22;;;;;;;10.37;6.13;;;;;;;;;;4376793;32;20178;-79
2021/01/23 12:29:48;;;;;;;7.67;6.30;;;;;;;;;;4376928;32;20521;-79
2021/01/23 12:32:23;;;;;;;9.43;6.13;;;;;;;;;;4376698;32;20223;-79
2021/01/23 12:34:51;;;;;;;10.33;6.37;;;;;;;;;;4377230;32;20264;-78
2021/01/23 12:37:19;;;;;;;13.90;6.53;;;;;;;;;;4376797;32;20185;-78
2021/01/23 12:39:54;;;;;;;8.73;6.50;;;;;;;;;;4390765;32;20135;-80
2021/01/23 12:42:19;;;;;;;9.27;6.43;;;;;;;;;;4376940;32;20173;-79
2021/01/23 12:44:45;;;;;;;11.60;6.50;;;;;;;;;;4376840;32;20223;-80
2021/01/23 12:47:35;;;;;;;10.07;6.50;;;;;;;;;;4376749;32;20227;-79
2021/01/23 12:50:01;;;;;;;9.97;6.77;;;;;;;;;;4376984;32;20162;-78
2021/01/23 12:52:26;;;;;;;11.33;6.23;;;;;;;;;;4376975;32;20216;-78
2021/01/23 12:55:02;;;;;;;11.47;6.47;;;;;;;;;;4376358;32;20169;-79
2021/01/23 12:57:36;;;;;;;9.90;6.17;;;;;;;;;;4390336;32;20146;-78
2021/01/23 13:02:53;;;;;;;11.53;6.50;;;;;;;;;;4388247;32;20639;-78
2021/01/23 13:05:31;;;;;;;;;;;;;;;;;;;;;
2021/01/23 13:08:08;;;;;;;10.27;6.63;;;;;;;;;;4386796;32;20610;-78
2021/01/23 13:10:53;;;;;;;;;;;;;;;;;;;;;
2021/01/23 13:14:05;;;;;;;12.07;6.80;;;;;;;;;;4390556;32;20190;-79
2021/01/23 13:16:23;;;;;;;10.73;6.93;;;;;;;;;;4387176;32;20161;-79
2021/01/23 13:19:25;;;;;;;13.20;6.67;;;;;;;;;;4375991;32;20220;-79
2021/01/23 13:21:59;;;;;;;12.17;6.53;;;;;;;;;;4389929;32;20650;-79
2021/01/23 13:24:28;;;;;;;10.17;6.77;;;;;;;;;;4375765;32;20154;-80
2021/01/23 13:27:17;;;;;;;11.50;7.13;;;;;;;;;;4376175;32;20197;-79
2021/01/23 13:29:44;;;;;;;10.20;6.83;;;;;;;;;;4388601;32;20267;-79
2021/01/23 13:32:18;;;;;;;10.73;7.20;;;;;;;;;;4375865;32;20162;-80
2021/01/23 13:34:52;;;;;;;11.40;7.10;;;;;;;;;;4375919;32;20189;-79
2021/01/23 13:37:26;;;;;;;13.20;7.50;;;;;;;;;;4376095;32;20154;-78
2021/01/23 13:39:52;;;;;;;12.90;7.20;;;;;;;;;;4376112;32;20153;-78
2021/01/23 13:42:22;;;;;;;18.43;8.43;;;;;;;;;;4375957;32;20166;-78
2021/01/23 13:44:55;;;;;;;9.87;6.90;;;;;;;;;;4376479;32;20615;-79
2021/01/23 13:47:39;;;;;;;11.43;6.83;;;;;;;;;;4372767;32;20216;-78
2021/01/23 13:50:06;;;;;;;11.63;6.90;;;;;;;;;;4360395;32;20189;-80
2021/01/23 13:52:35;;;;;;;12.23;7.87;;;;;;;;;;4360386;32;20721;-79
2021/01/23 13:55:00;;;;;;;13.80;7.80;;;;;;;;;;4359528;32;20669;-79
2021/01/23 13:57:31;;;;;;;14.80;8.37;;;;;;;;;;4360073;32;20170;-79
2021/01/23 13:59:57;;;;;;;12.23;7.60;;;;;;;;;;4359427;32;20186;-78
2021/01/23 14:02:24;;;;;;;36.93;15.63;;;;;;;;;;4372563;32;20321;-79
2021/01/23 14:04:56;;;;;;;13.70;7.87;;;;;;;;;;4359749;32;20514;-79
2021/01/23 14:07:27;;;;;;;14.80;8.10;;;;;;;;;;4360267;32;20182;-79
2021/01/23 14:09:52;;;;;;;12.67;7.20;;;;;;;;;;4370946;32;20158;-77
2021/01/23 14:12:33;;;;;;;;;;;;;;;;;;;;;
2021/01/23 14:15:02;;;;;;;10.60;7.40;;;;;;;;;;4389712;32;20178;-79
2021/01/23 14:17:33;;;;;;;12.70;7.63;;;;;;;;;;4376205;32;20141;-78
2021/01/23 14:23:08;;;;;;;12.47;7.73;;;;;;;;;;4379725;32;20159;-78
2021/01/23 14:25:37;;;;;;;13.07;7.37;;;;;;;;;;4379067;32;20146;-78
2021/01/23 14:28:05;;;;;;;13.70;7.97;;;;;;;;;;4378716;32;20170;-78
2021/01/23 14:30:34;;;;;;;16.83;8.80;;;;;;;;;;4392283;32;20142;-79
2021/01/23 14:32:59;;;;;;;11.67;7.73;;;;;;;;;;4378533;32;20239;-78
2021/01/23 14:35:34;;;;;;;16.10;8.43;;;;;;;;;;4379209;32;20154;-79
2021/01/23 14:38:00;;;;;;;17.63;8.90;;;;;;;;;;4378719;32;20177;-78
2021/01/23 14:40:37;;;;;;;16.07;8.73;;;;;;;;;;4378221;32;20155;-79
2021/01/23 14:43:15;;;;;;;15.37;9.10;;;;;;;;;;4378423;32;20166;-78
2021/01/23 14:45:59;;;;;;;;;;;;;;;;;;;;;
2021/01/23 14:48:31;;;;;;;16.67;9.43;;;;;;;;;;4316411;33;20206;-78
2021/01/23 14:51:16;;;;;;;13.90;8.10;;;;;;;;;;4308134;32;20194;-77
2021/01/23 14:53:56;;;;;;;14.43;9.10;;;;;;;;;;4378433;32;20220;-78
2021/01/23 14:56:26;;;;;;;16.53;8.83;;;;;;;;;;4378376;32;20162;-78
2021/01/23 14:58:54;;;;;;;15.30;8.60;;;;;;;;;;4391808;32;20162;-79
2021/01/23 15:04:40;;;;;;;14.40;8.73;;;;;;;;;;4404159;32;20188;-79
2021/01/23 15:07:20;;;;;;;14.80;9.43;;;;;;;;;;4402020;32;20185;-78
2021/01/23 15:09:46;;;;;;;15.67;8.73;;;;;;;;;;4407014;32;20204;-79
2021/01/23 15:12:11;;;;;;;18.17;9.13;;;;;;;;;;4393223;32;20161;-78
2021/01/23 15:14:48;;;;;;;16.30;9.83;;;;;;;;;;4393162;32;20170;-78
2021/01/23 15:17:17;;;;;;;17.00;9.60;;;;;;;;;;4407411;32;20126;-78
2021/01/23 15:19:42;;;;;;;17.57;10.60;;;;;;;;;;4380353;32;20158;-78
2021/01/23 15:22:07;;;;;;;18.30;10.40;;;;;;;;;;4377818;32;20236;-78
2021/01/23 15:28:00;;;;;;;;;;;;;;;;;;;;;
2021/01/23 15:30:25;;;;;;;17.87;10.27;;;;;;;;;;4401557;32;20154;-77
2021/01/23 15:32:51;;;;;;;18.47;10.30;;;;;;;;;;4392069;32;20200;-79
2021/01/23 15:35:23;;;;;;;20.70;10.53;;;;;;;;;;4392524;32;20237;-78
2021/01/23 15:37:48;;;;;;;14.83;9.93;;;;;;;;;;4392780;32;20151;-78
2021/01/23 15:40:26;;;;;;;18.93;10.13;;;;;;;;;;4392062;32;20162;-78
2021/01/23 15:42:56;;;;;;;14.83;9.60;;;;;;;;;;4401154;32;20196;-78
2021/01/23 15:45:32;;;;;;;;;;;;;;;;;;;;;
2021/01/23 15:47:58;;;;;;;17.60;9.97;;;;;;;;;;4408955;32;20149;-77
2021/01/23 15:50:37;;;;;;;21.60;11.03;;;;;;;;;;4421755;32;20160;-79
2021/01/23 15:53:55;;;;;;;16.40;9.97;;;;;;;;;;4407739;32;20149;-78
2021/01/23 15:56:33;;;;;;;18.53;10.47;;;;;;;;;;4408107;32;20445;-77
2021/01/23 15:59:14;;;;;;;15.80;10.27;;;;;;;;;;4407689;32;20216;-78
2021/01/23 16:01:46;;;;;;;16.40;9.83;;;;;;;;;;4407314;32;20161;-79
2021/01/23 16:04:14;;;;;;;15.87;9.70;;;;;;;;;;4407254;32;20188;-80
2021/01/23 16:06:42;;;;;;;15.67;10.37;;;;;;;;;;4421753;32;20169;-78
2021/01/23 16:09:16;;;;;;;21.97;11.70;;;;;;;;;;4407540;32;20162;-78
2021/01/23 16:11:41;;;;;;;18.37;11.70;;;;;;;;;;4421475;32;20133;-79
2021/01/23 16:14:07;;;;;;;20.03;10.93;;;;;;;;;;4407364;32;20223;-78
2021/01/23 16:16:32;;;;;;;18.93;11.27;;;;;;;;;;4421536;32;20295;-78
2021/01/23 16:19:42;;;;;;;21.27;11.67;;;;;;;;;;4407356;32;20550;-78
2021/01/23 16:22:03;;;;;;;17.80;10.67;;;;;;;;;;4416248;32;20707;-78
2021/01/23 16:24:38;;;;;;;19.87;11.23;;;;;;;;;;4406593;32;20197;-77
2021/01/23 16:27:06;;;;;;;21.80;12.13;;;;;;;;;;4407096;32;20571;-78
2021/01/23 16:29:33;;;;;;;20.07;12.13;;;;;;;;;;4407388;32;20591;-78
2021/01/23 16:32:06;;;;;;;20.83;11.63;;;;;;;;;;4407059;32;20204;-80
2021/01/23 16:34:35;;;;;;;18.73;10.83;;;;;;;;;;4407461;32;20161;-78
2021/01/23 16:37:00;;;;;;;20.87;11.10;;;;;;;;;;4421847;32;20168;-78
2021/01/23 16:39:33;;;;;;;18.10;11.13;;;;;;;;;;4404967;32;20162;-78
2021/01/23 16:42:02;;;;;;;20.20;12.20;;;;;;;;;;4402385;32;20181;-78
2021/01/23 16:44:30;;;;;;;21.83;13.37;;;;;;;;;;4416515;32;20587;-78
2021/01/23 16:46:58;;;;;;;23.67;13.90;;;;;;;;;;4406302;32;20157;-79